»·PEaware :: SKW3134 KASE-KPHX

SKW3134 :: KASE-KPHX

FLIGHT INFORMATION

Flight Status: Arrived
Operator:
SkyWest Airlines
More flights by this operator :: More flights under this callsign
Pilot: Jack B. (5846)
Aircraft: CANADAIR CL-600 CRJ-200
(CRJ2)
More flights by this aircraft type
Origin: KASE Aspen-Pitkin Co/Sardy
United States
Destination: KPHX Phoenix Sky Harbor Intl
United States
More flights between these airports :: More routes between these airports
Route: +LINDZ9 JNC GUP EAGUL6
File this flight plan on PilotEdge
Remarks:
Altitude:
(Current/Filed)
300ft
Speed:
(Current/Filed)
320kts
Departed: 30-Sep-19 09:56 AM
Arrived: 30-Sep-19 11:26 AM
Distance/Time
Traveled:
426nm/1:30
Distance/Time
To Go:
Arrived

Flight Plot

Page will automatically refresh every two minutes.

Flight plan parsing failed; only flown route is shown


Map Options




Map Legend


Flown Route
Filed Route
Departure Airport
Arrival Airport
Navaid (VOR, NDB)
Fix

Horizontal Profiles

Position Reports

Time Latitude Longitude Heading Altitude Ground
Speed
30-Sep-19 09:45 39.219818 -106.865339 161 7771ft 0kts
30-Sep-19 09:46 39.219818 -106.865339 161 7771ft 0kts
30-Sep-19 09:47 39.219818 -106.865339 161 7771ft 0kts
30-Sep-19 09:48 39.219818 -106.865339 161 7771ft 0kts
30-Sep-19 09:49 39.219818 -106.865339 161 7771ft 0kts
30-Sep-19 09:50 39.219818 -106.865339 161 7771ft 0kts
30-Sep-19 09:51 39.219818 -106.865339 161 7771ft 0kts
30-Sep-19 09:52 39.219357 -106.865651 198 7772ft 10kts
30-Sep-19 09:53 39.216537 -106.864511 160 7792ft 9kts
30-Sep-19 09:55 39.213119 -106.862877 160 7811ft 16kts
30-Sep-19 09:56 39.217359 -106.866110 339 7783ft 93kts
30-Sep-19 09:57 39.257407 -106.881363 352 8342ft 167kts
30-Sep-19 09:58 39.305944 -106.892775 304 9272ft 184kts
30-Sep-19 09:59 39.323605 -106.953649 282 10439ft 192kts
30-Sep-19 10:00 39.339027 -107.025438 282 11786ft 225kts
30-Sep-19 10:01 39.355832 -107.104900 284 13654ft 236kts
30-Sep-19 10:02 39.380805 -107.179824 257 15280ft 236kts
30-Sep-19 10:03 39.367249 -107.266886 252 16657ft 258kts
30-Sep-19 10:04 39.349629 -107.359361 251 18204ft 269kts
30-Sep-19 10:05 39.331328 -107.452883 250 19889ft 269kts
30-Sep-19 10:06 39.312894 -107.546387 249 21379ft 269kts
30-Sep-19 10:07 39.251764 -107.579031 179 22434ft 291kts
30-Sep-19 10:08 39.174513 -107.592689 200 23383ft 284kts
30-Sep-19 10:09 39.097036 -107.619510 201 24369ft 292kts
30-Sep-19 10:10 39.018617 -107.647896 201 25367ft 296kts
30-Sep-19 10:11 38.939418 -107.676629 201 26345ft 297kts
30-Sep-19 10:12 38.860400 -107.705197 200 27312ft 295kts
30-Sep-19 10:13 38.781962 -107.733478 201 28273ft 291kts
30-Sep-19 10:14 38.705542 -107.760997 202 29208ft 285kts
30-Sep-19 10:14 38.642860 -107.783534 202 29934ft 280kts
30-Sep-19 10:16 38.552244 -107.816090 202 29961ft 301kts
30-Sep-19 10:17 38.469350 -107.845724 202 29958ft 319kts
30-Sep-19 10:17 38.397105 -107.871520 201 29970ft 333kts
30-Sep-19 10:19 38.290431 -107.909499 201 29969ft 352kts
30-Sep-19 10:19 38.210742 -107.937785 201 29985ft 363kts
30-Sep-19 10:20 38.112216 -107.972673 201 30097ft 372kts
30-Sep-19 10:21 38.012129 -108.008021 201 30155ft 381kts
30-Sep-19 10:22 37.909603 -108.044128 200 30226ft 388kts
30-Sep-19 10:23 37.805116 -108.080818 200 30174ft 394kts
30-Sep-19 10:24 37.700204 -108.117876 200 30152ft 399kts
30-Sep-19 10:25 37.593180 -108.155358 200 30144ft 402kts
30-Sep-19 10:26 37.485934 -108.192685 200 30132ft 403kts
30-Sep-19 10:27 37.378132 -108.230092 200 30138ft 404kts
30-Sep-19 10:28 37.269867 -108.267542 200 30127ft 406kts
30-Sep-19 10:29 37.161124 -108.305046 200 30074ft 407kts
30-Sep-19 10:30 37.051993 -108.342613 199 30050ft 407kts
30-Sep-19 10:31 36.942767 -108.380055 198 30047ft 408kts
30-Sep-19 10:32 36.833752 -108.417291 198 30045ft 408kts
30-Sep-19 10:33 36.724330 -108.454581 198 30043ft 409kts
30-Sep-19 10:34 36.614845 -108.491793 198 30041ft 409kts
30-Sep-19 10:35 36.505343 -108.528891 198 30039ft 409kts
30-Sep-19 10:36 36.396229 -108.565762 198 30053ft 409kts
30-Sep-19 10:37 36.286434 -108.602740 198 30054ft 410kts
30-Sep-19 10:38 36.176495 -108.639667 198 30076ft 410kts
30-Sep-19 10:39 36.066548 -108.676483 198 30094ft 410kts
30-Sep-19 10:40 35.956552 -108.713221 198 30098ft 410kts
30-Sep-19 10:41 35.846611 -108.749828 198 30096ft 410kts
30-Sep-19 10:42 35.736878 -108.786252 198 30094ft 410kts
30-Sep-19 10:43 35.626838 -108.822685 198 30092ft 410kts
30-Sep-19 10:44 35.517071 -108.858919 198 30090ft 409kts
30-Sep-19 10:45 35.427167 -108.936697 224 30104ft 405kts
30-Sep-19 10:46 35.349337 -109.036470 225 30101ft 406kts
30-Sep-19 10:47 35.272088 -109.136449 225 30108ft 407kts
30-Sep-19 10:48 35.194074 -109.237036 225 30106ft 409kts
30-Sep-19 10:49 35.115818 -109.337411 225 30091ft 410kts
30-Sep-19 10:50 35.037064 -109.438110 225 30054ft 411kts
30-Sep-19 10:51 34.958327 -109.538560 225 30045ft 411kts
30-Sep-19 10:52 34.878955 -109.639422 224 30045ft 414kts
30-Sep-19 10:53 34.799177 -109.740807 224 30049ft 416kts
30-Sep-19 10:54 34.719277 -109.842242 224 30075ft 416kts
30-Sep-19 10:55 34.666415 -109.967705 241 30093ft 422kts
30-Sep-19 10:56 34.618049 -110.097215 241 30091ft 423kts
30-Sep-19 10:57 34.569820 -110.226759 241 30097ft 424kts
30-Sep-19 10:58 34.520962 -110.356577 241 30096ft 424kts
30-Sep-19 10:59 34.471779 -110.486626 241 30079ft 425kts
30-Sep-19 11:00 34.422712 -110.615867 241 30090ft 425kts
30-Sep-19 11:01 34.373167 -110.745832 241 30075ft 426kts
30-Sep-19 11:02 34.304930 -110.858961 225 30033ft 419kts
30-Sep-19 11:03 34.224759 -110.962589 225 27759ft 422kts
30-Sep-19 11:04 34.145703 -111.064436 226 25139ft 412kts
30-Sep-19 11:05 34.068454 -111.164136 226 22556ft 407kts
30-Sep-19 11:06 33.991460 -111.262843 225 19763ft 404kts
30-Sep-19 11:07 33.920338 -111.353711 225 17177ft 336kts
30-Sep-19 11:08 33.867190 -111.430677 234 16350ft 294kts
30-Sep-19 11:09 33.823768 -111.512665 235 14618ft 284kts
30-Sep-19 11:10 33.782691 -111.590366 235 12997ft 269kts
30-Sep-19 11:11 33.742593 -111.665592 235 12031ft 274kts
30-Sep-19 11:12 33.703964 -111.737987 235 11864ft 259kts
30-Sep-19 11:13 33.664741 -111.811885 234 10439ft 253kts
30-Sep-19 11:14 33.628056 -111.880883 234 10002ft 225kts
30-Sep-19 11:15 33.594317 -111.944242 233 8418ft 222kts
30-Sep-19 11:16 33.560897 -112.006854 233 7033ft 233kts
30-Sep-19 11:17 33.527402 -112.076961 260 7015ft 238kts
30-Sep-19 11:18 33.523945 -112.152442 267 5681ft 239kts
30-Sep-19 11:19 33.517348 -112.235816 244 3048ft 252kts
30-Sep-19 11:20 33.466606 -112.235673 112 3014ft 232kts
30-Sep-19 11:21 33.443978 -112.162288 107 2997ft 240kts
30-Sep-19 11:22 33.440850 -112.094440 89 2286ft 178kts
30-Sep-19 11:23 33.440845 -112.040075 89 1375ft 157kts
30-Sep-19 11:24 33.440834 -112.001370 89 1134ft 60kts
30-Sep-19 11:25 33.439053 -111.994986 93 1138ft 14kts
30-Sep-19 11:26 33.436506 -111.993204 180 1127ft 0kts

Navigation Log

Ident Type
Flight plan parsing failed, navigation log unavailable